Time;durP1;ratioP1;P1;durP2;ratioP2;P2;SDS_P1;SDS_P2;PMS_P1;PMS_P2;Temp;Humidity;BMP_temperature;BMP_pressure;BME280_temperature;BME280_humidity;BME280_pressure;Samples;Min_cycle;Max_cycle;Signal;HPM_P1;HPM_P2
2022/04/20 00:00:05;;;;;;;7.40;4.30;;;22.40;47.40;;;;;;220148;1266;22522;-63
2022/04/20 00:05:33;;;;;;;8.90;4.70;;;22.40;47.70;;;;;;220299;1268;24237;-64
2022/04/20 00:10:37;;;;;;;9.70;4.60;;;22.30;47.40;;;;;;220321;1267;24228;-65
2022/04/20 00:15:40;;;;;;;8.00;4.20;;;22.30;47.40;;;;;;220676;1268;22546;-61
2022/04/20 00:20:45;;;;;;;6.30;4.10;;;22.60;47.40;;;;;;220510;1270;24315;-63
2022/04/20 00:25:48;;;;;;;8.90;4.50;;;23.00;46.60;;;;;;220823;1267;24310;-63
2022/04/20 00:30:54;;;;;;;10.70;4.50;;;23.30;46.20;;;;;;220728;1265;22537;-63
2022/04/20 00:35:58;;;;;;;8.10;4.20;;;23.40;45.50;;;;;;220827;1265;25285;-63
2022/04/20 00:41:01;;;;;;;8.50;4.90;;;23.50;45.10;;;;;;220332;1270;25101;-65
2022/04/20 00:46:07;;;;;;;9.80;4.80;;;23.60;44.90;;;;;;220784;1270;24377;-64
2022/04/20 00:51:10;;;;;;;8.10;4.70;;;23.70;44.90;;;;;;221018;1268;23717;-64
2022/04/20 00:56:15;;;;;;;7.80;4.80;;;23.80;44.70;;;;;;220569;1269;22639;-63
2022/04/20 01:01:20;;;;;;;8.00;4.70;;;23.80;44.40;;;;;;220756;1268;22563;-62
2022/04/20 01:06:24;;;;;;;10.30;4.60;;;23.80;44.10;;;;;;220123;1268;24366;-63
2022/04/20 01:11:51;;;;;;;9.80;5.30;;;23.80;44.70;;;;;;220668;1270;22560;-62
2022/04/20 01:17:30;;;;;;;9.50;4.60;;;23.80;44.00;;;;;;219815;1268;22624;-64
2022/04/20 01:22:42;;;;;;;7.50;4.90;;;23.70;44.10;;;;;;220667;1268;22638;-63
2022/04/20 01:28:18;;;;;;;7.40;4.40;;;23.70;44.30;;;;;;220209;1267;24203;-65
2022/04/20 01:33:31;;;;;;;8.60;4.70;;;23.60;44.40;;;;;;220691;1269;22560;-65
2022/04/20 01:38:36;;;;;;;8.90;4.80;;;23.60;44.40;;;;;;220630;1268;22612;-64
2022/04/20 01:43:40;;;;;;;7.70;4.60;;;23.50;44.40;;;;;;220657;1268;22710;-64
2022/04/20 01:49:03;;;;;;;8.10;4.80;;;23.40;44.50;;;;;;220951;1270;25207;-61
2022/04/20 01:54:25;;;;;;;10.30;4.30;;;23.40;44.50;;;;;;220606;1268;22615;-64
2022/04/20 01:59:42;;;;;;;7.60;4.80;;;23.40;44.50;;;;;;220697;1268;24435;-62
2022/04/20 02:05:02;;;;;;;8.70;5.10;;;23.40;44.40;;;;;;220489;1268;22587;-63
2022/04/20 02:10:07;;;;;;;10.20;4.90;;;23.40;44.50;;;;;;220489;1270;23441;-64
2022/04/20 02:15:12;;;;;;;10.20;4.70;;;23.30;44.50;;;;;;220268;1268;24862;-62
2022/04/20 02:20:32;;;;;;;7.40;4.70;;;23.30;44.60;;;;;;220360;1267;22563;-63
2022/04/20 02:25:36;;;;;;;10.30;5.30;;;23.30;44.70;;;;;;220116;1268;25605;-63
2022/04/20 02:30:41;;;;;;;7.40;4.80;;;23.30;44.70;;;;;;220323;1268;24324;-64
2022/04/20 02:35:45;;;;;;;8.70;5.10;;;23.30;44.70;;;;;;220951;1268;22527;-64
2022/04/20 02:40:51;;;;;;;8.50;4.90;;;23.30;44.70;;;;;;220403;1268;22512;-65
2022/04/20 02:45:57;;;;;;;8.70;4.80;;;23.30;44.70;;;;;;220689;1266;24061;-65
2022/04/20 02:51:01;;;;;;;8.60;5.00;;;23.30;44.60;;;;;;220699;1268;22547;-62
2022/04/20 02:56:06;;;;;;;8.10;4.70;;;23.30;44.70;;;;;;220760;1268;24313;-65
2022/04/20 03:01:10;;;;;;;7.30;4.90;;;23.30;44.60;;;;;;220515;1268;22526;-64
2022/04/20 03:06:27;;;;;;;7.80;5.00;;;23.30;44.50;;;;;;220843;1267;22526;-64
2022/04/20 03:11:31;;;;;;;9.10;5.20;;;23.30;44.60;;;;;;220698;1270;25304;-65
2022/04/20 03:16:35;;;;;;;8.10;4.80;;;23.30;44.80;;;;;;220849;1267;22682;-65
2022/04/20 03:21:44;;;;;;;9.30;4.90;;;23.30;44.50;;;;;;220451;1267;22544;-63
2022/04/20 03:26:48;;;;;;;8.50;5.00;;;23.30;44.40;;;;;;220836;1267;24215;-63
2022/04/20 03:32:01;;;;;;;7.30;4.90;;;23.30;44.40;;;;;;220664;1267;22608;-65
2022/04/20 03:37:06;;;;;;;7.00;5.00;;;23.30;44.50;;;;;;220805;1268;24644;-64
2022/04/20 03:42:14;;;;;;;7.70;5.10;;;23.40;44.60;;;;;;220246;1267;24252;-64
2022/04/20 03:47:17;;;;;;;8.20;4.90;;;23.50;44.80;;;;;;220224;1267;23052;-65
2022/04/20 03:52:21;;;;;;;8.50;5.40;;;23.60;44.10;;;;;;220713;1267;22593;-65
2022/04/20 03:57:25;;;;;;;8.30;4.80;;;23.70;43.90;;;;;;220505;1267;22776;-64
2022/04/20 04:02:28;;;;;;;9.80;4.90;;;23.70;43.60;;;;;;220494;1267;22710;-63
2022/04/20 04:07:48;;;;;;;8.20;4.90;;;23.80;43.50;;;;;;220289;1267;23213;-64
2022/04/20 04:12:56;;;;;;;7.70;5.00;;;23.90;43.30;;;;;;220466;1267;24202;-64
2022/04/20 04:18:01;;;;;;;8.50;5.50;;;23.90;43.70;;;;;;220544;1267;22822;-61
2022/04/20 04:23:26;;;;;;;9.70;5.60;;;23.80;43.40;;;;;;219923;1266;786807;-64
2022/04/20 04:28:59;;;;;;;8.20;5.10;;;23.70;43.50;;;;;;220484;1267;22547;-65
2022/04/20 04:34:02;;;;;;;7.50;4.40;;;23.60;43.80;;;;;;220594;1268;23426;-64
2022/04/20 04:39:06;;;;;;;10.80;5.70;;;23.50;44.10;;;;;;220340;1268;22761;-64
2022/04/20 04:44:10;;;;;;;8.10;4.90;;;23.40;44.20;;;;;;220701;1268;24364;-65
2022/04/20 04:49:17;;;;;;;7.10;4.50;;;23.30;44.40;;;;;;220502;1268;22643;-65
2022/04/20 04:54:25;;;;;;;7.60;5.10;;;23.20;44.40;;;;;;220721;1267;22554;-65
2022/04/20 04:59:37;;;;;;;8.40;5.20;;;23.20;44.70;;;;;;220603;1267;22606;-63
2022/04/20 05:04:41;;;;;;;8.90;5.30;;;23.10;44.80;;;;;;220608;1268;22693;-62
2022/04/20 05:09:44;;;;;;;8.00;5.00;;;23.10;45.00;;;;;;220428;1267;24217;-63
2022/04/20 05:14:49;;;;;;;9.80;5.60;;;23.00;45.10;;;;;;220700;1268;24222;-64
2022/04/20 05:19:53;;;;;;;7.20;5.00;;;23.00;45.20;;;;;;221029;1268;25245;-63
2022/04/20 05:24:59;;;;;;;7.70;4.70;;;22.90;45.30;;;;;;220143;1268;23946;-64
2022/04/20 05:30:04;;;;;;;7.70;5.00;;;22.90;45.70;;;;;;220446;1267;23584;-63
2022/04/20 05:35:09;;;;;;;8.40;5.60;;;22.80;45.50;;;;;;220378;1267;24222;-63
2022/04/20 05:45:39;;;;;;;7.10;4.80;;;22.70;46.20;;;;;;220657;1267;25568;-65
2022/04/20 05:50:55;;;;;;;8.60;4.60;;;22.70;46.00;;;;;;220845;1267;23219;-65
2022/04/20 05:55:59;;;;;;;7.40;4.60;;;22.70;45.80;;;;;;220984;1267;24265;-63
2022/04/20 06:01:04;;;;;;;7.90;4.60;;;22.60;46.20;;;;;;220317;1268;22526;-65
2022/04/20 06:06:28;;;;;;;13.10;5.70;;;22.60;46.80;;;;;;220691;1267;22555;-64
2022/04/20 06:11:34;;;;;;;10.60;5.30;;;22.60;47.30;;;;;;220658;1267;22566;-63
2022/04/20 06:16:39;;;;;;;10.00;5.00;;;22.60;47.60;;;;;;220254;1267;25333;-63
2022/04/20 06:21:47;;;;;;;9.90;4.70;;;22.60;47.60;;;;;;220136;1267;22627;-65
2022/04/20 06:27:17;;;;;;;8.00;4.60;;;22.50;47.80;;;;;;220638;1267;24376;-64
2022/04/20 06:32:48;;;;;;;8.40;4.60;;;22.50;47.90;;;;;;220226;1268;25245;-63
2022/04/20 06:38:09;;;;;;;12.00;5.20;;;22.50;48.50;;;;;;220210;1267;25353;-66
2022/04/20 06:43:42;;;;;;;13.20;4.30;;;22.50;48.70;;;;;;219869;1267;22554;-63
2022/04/20 06:49:22;;;;;;;16.70;4.40;;;22.50;48.50;;;;;;220356;1267;22553;-69
2022/04/20 06:59:50;;;;;;;18.80;4.90;;;22.30;49.00;;;;;;220042;1267;22684;-67
2022/04/20 07:05:14;;;;;;;11.90;5.20;;;22.30;48.80;;;;;;219997;1267;23923;-64
2022/04/20 07:10:36;;;;;;;12.10;4.90;;;22.30;48.40;;;;;;220247;1267;22527;-65
2022/04/20 07:15:46;;;;;;;10.70;5.30;;;22.30;48.40;;;;;;220498;1267;24189;-65
2022/04/20 07:20:51;;;;;;;12.60;5.10;;;22.30;48.50;;;;;;220223;1268;25168;-66
2022/04/20 07:26:15;;;;;;;11.50;4.70;;;22.30;48.50;;;;;;220381;1267;24205;-66
2022/04/20 07:31:25;;;;;;;10.00;4.10;;;22.30;48.80;;;;;;220570;1267;23903;-65
2022/04/20 07:36:49;;;;;;;10.60;4.70;;;22.40;48.60;;;;;;220581;1267;25170;-66
2022/04/20 07:42:23;;;;;;;10.20;4.30;;;22.80;47.60;;;;;;220207;1267;24249;-66
2022/04/20 07:47:45;;;;;;;12.20;4.60;;;23.10;46.50;;;;;;220836;1267;22535;-66
2022/04/20 07:53:12;;;;;;;7.20;4.30;;;23.20;46.00;;;;;;220724;1267;22644;-65
2022/04/20 07:58:28;;;;;;;8.80;4.70;;;23.40;45.70;;;;;;220302;1267;24089;-66
2022/04/20 08:03:59;;;;;;;7.50;4.50;;;23.50;45.50;;;;;;220512;1267;22627;-66
2022/04/20 08:09:26;;;;;;;9.00;4.00;;;23.50;45.00;;;;;;220725;1267;24472;-66
2022/04/20 08:14:31;;;;;;;8.60;4.30;;;23.60;45.10;;;;;;220767;1267;22571;-66
2022/04/20 08:19:53;;;;;;;14.00;4.90;;;23.40;45.20;;;;;;220238;1268;22567;-65
2022/04/20 08:25:09;;;;;;;5.90;3.80;;;23.40;45.40;;;;;;220717;1267;22572;-67
2022/04/20 08:30:13;;;;;;;9.40;4.00;;;23.30;45.50;;;;;;220840;1267;25290;-65
2022/04/20 08:35:19;;;;;;;7.10;4.20;;;23.20;45.60;;;;;;220978;1267;24408;-67
2022/04/20 08:40:25;;;;;;;6.50;3.70;;;23.20;45.70;;;;;;220588;1267;22541;-65
2022/04/20 08:45:29;;;;;;;8.60;4.10;;;23.20;45.80;;;;;;220438;1267;22602;-64
2022/04/20 08:50:33;;;;;;;8.40;4.10;;;23.10;45.90;;;;;;220355;1267;22562;-64
2022/04/20 08:55:37;;;;;;;6.30;4.10;;;23.10;45.80;;;;;;220623;1267;25482;-65
2022/04/20 09:00:41;;;;;;;7.70;3.80;;;23.10;45.70;;;;;;220833;1267;22591;-64
2022/04/20 09:05:45;;;;;;;7.90;4.00;;;23.00;45.70;;;;;;221065;1267;22480;-65
2022/04/20 09:10:49;;;;;;;6.00;3.40;;;23.10;45.50;;;;;;220891;1267;25187;-65
2022/04/20 09:15:54;;;;;;;6.20;3.60;;;23.10;45.60;;;;;;220712;1266;24424;-64
2022/04/20 09:21:10;;;;;;;6.60;4.10;;;23.10;45.50;;;;;;220815;1267;25388;-65
2022/04/20 09:26:16;;;;;;;5.50;3.70;;;23.10;45.80;;;;;;220299;1267;25603;-64
2022/04/20 09:31:42;;;;;;;9.00;3.80;;;23.30;45.30;;;;;;220670;1267;22589;-65
2022/04/20 09:36:47;;;;;;;7.80;3.80;;;23.50;44.90;;;;;;220367;1267;25293;-66
2022/04/20 09:41:59;;;;;;;6.60;3.60;;;23.50;45.40;;;;;;220525;1265;22650;-65
2022/04/20 09:52:47;;;;;;;6.70;3.80;;;23.50;46.10;;;;;;220792;1265;24322;-65
2022/04/20 09:57:51;;;;;;;5.40;3.50;;;23.50;45.80;;;;;;220598;1265;26580;-65
2022/04/20 10:02:54;;;;;;;7.00;3.70;;;23.40;45.70;;;;;;220582;1265;22603;-65
2022/04/20 10:07:59;;;;;;;7.60;3.70;;;23.30;46.20;;;;;;220962;1265;24513;-64
2022/04/20 10:13:04;;;;;;;6.10;3.30;;;23.30;46.10;;;;;;220739;1267;26465;-65
2022/04/20 10:18:13;;;;;;;6.10;3.60;;;23.20;45.70;;;;;;220754;1267;24379;-66
2022/04/20 10:23:21;;;;;;;5.80;3.70;;;23.10;46.50;;;;;;220359;1267;22564;-65
2022/04/20 10:28:59;;;;;;;5.70;3.40;;;23.10;46.20;;;;;;220530;1267;22548;-66
2022/04/20 10:34:05;;;;;;;6.70;4.00;;;23.10;46.20;;;;;;220905;1266;22655;-63
2022/04/20 10:39:22;;;;;;;6.90;3.60;;;23.00;46.30;;;;;;220808;1267;22550;-64
2022/04/20 10:45:06;;;;;;;5.60;3.60;;;23.00;46.40;;;;;;220224;1267;22535;-65
2022/04/20 10:50:16;;;;;;;5.70;3.80;;;22.90;46.30;;;;;;220901;1267;25473;-65
2022/04/20 10:55:35;;;;;;;6.00;3.40;;;22.90;46.60;;;;;;220597;1267;24289;-65
2022/04/20 11:00:40;;;;;;;6.00;3.20;;;22.90;46.30;;;;;;220417;1267;25514;-64
2022/04/20 11:05:56;;;;;;;5.10;3.40;;;22.80;46.70;;;;;;220421;1267;22544;-65
2022/04/20 11:22:00;;;;;;;5.50;3.10;;;22.80;46.30;;;;;;220427;1267;22652;-63
2022/04/20 11:27:07;;;;;;;5.60;3.20;;;22.70;46.20;;;;;;220546;1267;23943;-64
2022/04/20 11:32:13;;;;;;;6.20;3.60;;;22.60;46.60;;;;;;220652;1267;24263;-65
2022/04/20 11:37:24;;;;;;;7.00;3.70;;;22.60;46.60;;;;;;220324;1267;22532;-66
2022/04/20 11:42:32;;;;;;;5.70;3.20;;;22.60;46.90;;;;;;220242;1270;25308;-64
2022/04/20 11:47:40;;;;;;;5.30;3.60;;;22.50;47.20;;;;;;220543;1267;22538;-64
2022/04/20 11:52:57;;;;;;;5.80;3.20;;;22.50;46.90;;;;;;220719;1267;22530;-64
2022/04/20 11:58:36;;;;;;;5.40;3.10;;;22.50;47.20;;;;;;220238;1267;24314;-63
2022/04/20 12:03:49;;;;;;;4.70;3.10;;;22.40;47.00;;;;;;220664;1267;22538;-64
2022/04/20 12:08:54;;;;;;;4.20;3.00;;;22.40;47.10;;;;;;220564;1267;24813;-63
2022/04/20 12:13:58;;;;;;;4.40;2.80;;;22.30;47.10;;;;;;220646;1267;25348;-64
2022/04/20 12:19:02;;;;;;;6.80;3.20;;;22.40;47.40;;;;;;220805;1267;25239;-64
2022/04/20 12:24:08;;;;;;;5.70;3.00;;;22.60;46.40;;;;;;220490;1267;22729;-65
2022/04/20 12:29:13;;;;;;;5.10;3.50;;;23.00;45.60;;;;;;220935;1268;24183;-66
2022/04/20 12:34:19;;;;;;;4.80;3.30;;;23.20;45.10;;;;;;220705;1267;24231;-64
2022/04/20 12:39:45;;;;;;;4.60;2.70;;;23.40;45.10;;;;;;220583;1270;26613;-65
2022/04/20 12:44:51;;;;;;;4.40;3.10;;;23.60;44.40;;;;;;220762;1267;25397;-64
2022/04/20 12:49:59;;;;;;;4.40;2.50;;;23.70;44.20;;;;;;220764;1267;24307;-67
2022/04/20 12:55:09;;;;;;;4.50;2.90;;;23.80;43.90;;;;;;220695;1267;23168;-64
2022/04/20 13:05:45;;;;;;;4.00;2.70;;;23.90;43.70;;;;;;221005;1267;24263;-64
2022/04/20 13:10:50;;;;;;;3.40;2.50;;;23.90;43.80;;;;;;220678;1267;24263;-66
2022/04/20 13:15:54;;;;;;;5.50;2.90;;;23.70;43.90;;;;;;220641;1267;22523;-66
2022/04/20 13:20:58;;;;;;;4.80;2.70;;;23.60;44.10;;;;;;221104;1267;24307;-65
2022/04/20 13:31:25;;;;;;;4.60;2.70;;;23.50;44.90;;;;;;220847;1267;25494;-65
2022/04/20 13:36:29;;;;;;;3.60;2.60;;;23.40;44.70;;;;;;220729;1267;22547;-65
2022/04/20 13:41:33;;;;;;;3.80;2.40;;;23.30;44.80;;;;;;220659;1267;22894;-64
2022/04/20 13:46:37;;;;;;;4.20;2.20;;;23.30;44.80;;;;;;220490;1267;24487;-66
2022/04/20 13:51:44;;;;;;;3.00;2.20;;;23.30;45.10;;;;;;220690;1267;25343;-64
2022/04/20 13:56:57;;;;;;;5.60;2.50;;;23.30;45.00;;;;;;221056;1268;22534;-66
2022/04/20 14:02:06;;;;;;;5.40;3.00;;;23.30;44.30;;;;;;221058;1267;22544;-66
2022/04/20 14:07:12;;;;;;;5.70;2.90;;;23.30;44.40;;;;;;220730;1267;24326;-66
2022/04/20 14:12:18;;;;;;;4.10;2.60;;;23.30;44.40;;;;;;220408;1267;22564;-65
2022/04/20 14:17:22;;;;;;;4.20;2.30;;;23.20;44.50;;;;;;220670;1267;25533;-64
2022/04/20 14:22:26;;;;;;;4.00;2.40;;;23.20;44.40;;;;;;220195;1267;22550;-65
2022/04/20 14:33:08;;;;;;;3.60;2.10;;;23.20;44.20;;;;;;220292;1267;22746;-65
2022/04/20 14:38:13;;;;;;;5.10;2.40;;;23.20;44.10;;;;;;220260;1267;22530;-65
2022/04/20 14:43:19;;;;;;;3.20;2.00;;;23.30;44.10;;;;;;220323;1268;25546;-66
2022/04/20 14:48:25;;;;;;;3.80;2.40;;;23.30;44.00;;;;;;220574;1267;22674;-65
2022/04/20 14:53:37;;;;;;;7.60;2.60;;;23.30;44.00;;;;;;220749;1267;24223;-66
2022/04/20 14:58:44;;;;;;;23.50;2.90;;;23.30;43.30;;;;;;220712;1267;22527;-68
2022/04/20 15:03:48;;;;;;;10.90;2.60;;;23.30;44.90;;;;;;220642;1267;22693;-61
2022/04/20 15:08:52;;;;;;;12.70;2.50;;;23.30;43.30;;;;;;220403;1267;22558;-60
2022/04/20 15:13:57;;;;;;;9.60;4.00;;;23.30;43.30;;;;;;220366;1267;22620;-62
2022/04/20 15:19:03;;;;;;;4.80;2.60;;;23.30;43.20;;;;;;220603;1267;22567;-59
2022/04/20 15:24:10;;;;;;;5.90;2.60;;;23.30;43.20;;;;;;220433;1268;22531;-60
2022/04/20 15:29:15;;;;;;;6.60;2.60;;;23.30;43.40;;;;;;220634;1267;22726;-62
2022/04/20 15:34:23;;;;;;;7.40;3.70;;;23.30;43.30;;;;;;220497;1267;24197;-61
2022/04/20 15:39:28;;;;;;;6.60;2.60;;;23.30;43.50;;;;;;220623;1268;23041;-58
2022/04/20 15:44:57;;;;;;;5.30;2.50;;;23.20;43.70;;;;;;220308;1267;25528;-60
2022/04/20 15:50:01;;;;;;;5.70;2.80;;;23.10;43.40;;;;;;220867;1268;22529;-62
2022/04/20 16:00:38;;;;;;;11.20;2.90;;;22.90;43.60;;;;;;220443;1267;22589;-61
2022/04/20 16:05:43;;;;;;;5.50;2.40;;;22.80;43.60;;;;;;220415;1267;24237;-59
2022/04/20 16:10:55;;;;;;;11.60;3.30;;;22.80;43.70;;;;;;220150;1268;22779;-60
2022/04/20 16:15:59;;;;;;;9.40;3.00;;;22.80;44.60;;;;;;220759;1267;22590;-63
2022/04/20 16:21:17;;;;;;;8.00;2.80;;;22.90;45.00;;;;;;220205;1267;906052;-61
2022/04/20 16:26:21;;;;;;;8.90;2.40;;;22.90;45.00;;;;;;220714;1268;24229;-62
2022/04/20 16:31:27;;;;;;;6.40;2.70;;;22.90;45.20;;;;;;220450;1267;24300;-61
2022/04/20 16:36:32;;;;;;;8.20;2.90;;;22.80;45.40;;;;;;220661;1268;22868;-61
2022/04/20 16:41:37;;;;;;;6.30;2.70;;;22.80;45.80;;;;;;220557;1267;22658;-62
2022/04/20 16:46:43;;;;;;;6.70;2.60;;;22.80;46.00;;;;;;220786;1267;24329;-61
2022/04/20 16:51:56;;;;;;;7.10;2.70;;;22.80;45.80;;;;;;220374;1268;22535;-69
2022/04/20 16:57:04;;;;;;;7.80;2.80;;;22.80;46.10;;;;;;220539;1268;22617;-60
2022/04/20 17:02:09;;;;;;;14.70;4.20;;;22.70;46.00;;;;;;224415;1268;24316;-61
2022/04/20 17:07:15;;;;;;;12.90;3.20;;;22.70;46.10;;;;;;220505;1268;25232;-61
2022/04/20 17:12:20;;;;;;;12.90;3.60;;;22.70;46.00;;;;;;222513;1268;22712;-61
2022/04/20 17:17:24;;;;;;;12.00;3.50;;;22.60;46.00;;;;;;220772;1267;26535;-61
2022/04/20 17:27:57;;;;;;;10.40;4.00;;;22.50;46.70;;;;;;219694;1267;24359;-60
2022/04/20 17:33:01;;;;;;;12.00;3.50;;;22.50;46.80;;;;;;220334;1267;26489;-61
2022/04/20 17:38:10;;;;;;;12.00;3.90;;;22.50;46.80;;;;;;220831;1267;23056;-63
2022/04/20 17:43:16;;;;;;;11.20;3.90;;;22.50;46.50;;;;;;220671;1268;25656;-62
2022/04/20 17:48:20;;;;;;;14.10;4.60;;;22.40;46.50;;;;;;220595;1268;26488;-63
2022/04/20 17:53:29;;;;;;;13.00;3.50;;;22.40;46.40;;;;;;220597;1268;22716;-62
2022/04/20 17:58:37;;;;;;;10.20;3.60;;;22.40;47.00;;;;;;220694;1268;22544;-63
2022/04/20 18:03:43;;;;;;;13.90;3.80;;;22.30;47.30;;;;;;220527;1268;24361;-58
2022/04/20 18:08:47;;;;;;;11.30;4.50;;;22.30;47.80;;;;;;220761;1267;25274;-62
2022/04/20 18:13:53;;;;;;;11.60;4.40;;;22.30;50.10;;;;;;221091;1270;22533;-64
2022/04/20 18:18:59;;;;;;;9.50;4.10;;;22.40;51.40;;;;;;220697;1268;22571;-62
2022/04/20 18:24:05;;;;;;;12.20;3.80;;;22.40;50.60;;;;;;220759;1267;23904;-60
2022/04/20 18:29:10;;;;;;;21.50;5.10;;;22.30;50.90;;;;;;220812;1268;22532;-68
2022/04/20 18:34:18;;;;;;;20.50;4.60;;;22.30;50.30;;;;;;220698;1268;22533;-62
2022/04/20 18:39:23;;;;;;;10.70;3.90;;;22.40;50.50;;;;;;220541;1267;24459;-64
2022/04/20 18:44:28;;;;;;;20.70;4.50;;;22.40;50.30;;;;;;220300;1268;24281;-64
2022/04/20 18:49:32;;;;;;;9.70;3.70;;;22.40;51.10;;;;;;220307;1267;22541;-62
2022/04/20 19:00:00;;;;;;;10.90;3.70;;;22.40;51.10;;;;;;220700;1268;25352;-64
2022/04/20 19:05:09;;;;;;;13.50;3.10;;;22.40;51.20;;;;;;221047;1265;24341;-67
2022/04/20 19:10:32;;;;;;;11.50;3.50;;;22.40;51.50;;;;;;220543;1267;22531;-65
2022/04/20 19:15:42;;;;;;;13.60;3.50;;;22.40;51.90;;;;;;220402;1271;22538;-64
2022/04/20 19:20:48;;;;;;;15.00;3.50;;;22.40;51.70;;;;;;220360;1268;23883;-64
2022/04/20 19:25:53;;;;;;;14.40;3.60;;;22.40;51.40;;;;;;220529;1266;22723;-63
2022/04/20 19:31:00;;;;;;;13.70;3.70;;;22.40;52.20;;;;;;220762;1265;22566;-64
2022/04/20 19:36:07;;;;;;;13.70;3.40;;;22.40;52.50;;;;;;220750;1265;22754;-64
2022/04/20 19:41:12;;;;;;;11.50;3.20;;;22.40;52.50;;;;;;220624;1268;22525;-64
2022/04/20 19:46:27;;;;;;;21.80;3.60;;;22.40;52.50;;;;;;220646;1270;25248;-67
2022/04/20 19:51:32;;;;;;;12.00;3.00;;;22.30;52.10;;;;;;220397;1268;22709;-64
2022/04/20 19:56:42;;;;;;;11.50;3.00;;;22.30;52.40;;;;;;220433;1268;22544;-61
2022/04/20 20:01:50;;;;;;;9.80;3.00;;;22.30;52.30;;;;;;220751;1268;22552;-61
2022/04/20 20:06:57;;;;;;;11.60;3.50;;;22.30;52.10;;;;;;220382;1268;22733;-63
2022/04/20 20:12:12;;;;;;;8.90;2.70;;;22.30;52.00;;;;;;220440;1268;24248;-72
2022/04/20 20:17:23;;;;;;;10.90;2.90;;;22.30;51.90;;;;;;220682;1268;24263;-70
2022/04/20 20:22:26;;;;;;;7.10;3.00;;;22.30;52.10;;;;;;220589;1265;27424;-70
2022/04/20 20:33:08;;;;;;;13.30;3.30;;;22.20;51.80;;;;;;220503;1268;22551;-72
2022/04/20 20:38:14;;;;;;;9.00;3.40;;;22.10;51.60;;;;;;220480;1269;22549;-69
2022/04/20 20:43:21;;;;;;;13.90;3.40;;;22.10;51.60;;;;;;221130;1268;22819;-69
2022/04/20 20:54:13;;;;;;;9.60;3.30;;;22.10;51.60;;;;;;220389;1268;24274;-75
2022/04/20 20:59:33;;;;;;;7.30;3.10;;;22.40;50.90;;;;;;220505;1268;24312;-76
2022/04/20 21:04:41;;;;;;;8.30;2.80;;;22.70;50.40;;;;;;220683;1268;25245;-76
2022/04/20 21:09:52;;;;;;;6.70;3.20;;;22.90;49.90;;;;;;220642;1268;25326;-76
2022/04/20 21:14:59;;;;;;;6.10;2.90;;;23.00;49.50;;;;;;220475;1268;22543;-78
2022/04/20 21:20:04;;;;;;;7.70;2.80;;;23.10;49.20;;;;;;220334;1268;26667;-77
2022/04/20 21:25:13;;;;;;;8.10;2.60;;;23.20;49.20;;;;;;220334;1268;23952;-74
2022/04/20 21:30:24;;;;;;;6.10;2.70;;;23.30;48.90;;;;;;220314;1268;22557;-75
2022/04/20 21:35:31;;;;;;;8.30;2.90;;;23.40;48.30;;;;;;220584;1268;25241;-72
2022/04/20 21:40:56;;;;;;;6.10;2.60;;;23.40;48.10;;;;;;220255;1268;25418;-75
2022/04/20 21:46:12;;;;;;;5.90;2.50;;;23.60;47.90;;;;;;220460;1267;22569;-74
2022/04/20 21:51:18;;;;;;;7.00;2.80;;;23.60;47.80;;;;;;220342;1268;25454;-72
2022/04/20 21:56:23;;;;;;;8.30;3.00;;;23.80;49.40;;;;;;220170;1268;22616;-72
2022/04/20 22:01:35;;;;;;;8.40;3.30;;;23.70;50.80;;;;;;220622;1267;22652;-74
2022/04/20 22:12:31;;;;;;;11.50;2.90;;;23.70;50.80;;;;;;220387;1268;25622;-68
2022/04/20 22:17:38;;;;;;;11.30;3.00;;;23.60;50.80;;;;;;220418;1267;26670;-72
2022/04/20 22:22:48;;;;;;;9.50;2.80;;;23.40;50.70;;;;;;220823;1267;25361;-77
2022/04/20 22:27:52;;;;;;;11.40;3.10;;;23.30;50.90;;;;;;220689;1267;24209;-72
2022/04/20 22:33:02;;;;;;;9.10;3.50;;;23.30;52.00;;;;;;220910;1266;22609;-61
2022/04/20 22:38:07;;;;;;;11.90;2.40;;;23.30;53.80;;;;;;220521;1267;24291;-63
2022/04/20 22:43:11;;;;;;;12.30;3.10;;;23.20;53.20;;;;;;220834;1267;23187;-62
2022/04/20 22:48:19;;;;;;;10.10;3.30;;;23.20;53.90;;;;;;220770;1268;22553;-62
2022/04/20 22:53:24;;;;;;;8.40;3.10;;;23.10;54.00;;;;;;220443;1267;25528;-62
2022/04/20 22:58:29;;;;;;;9.60;3.00;;;23.10;53.60;;;;;;220757;1268;22587;-62
2022/04/20 23:03:35;;;;;;;6.40;2.80;;;23.00;53.30;;;;;;220947;1268;25451;-62
2022/04/20 23:08:40;;;;;;;7.90;3.40;;;22.90;53.30;;;;;;220615;1268;24299;-63
2022/04/20 23:13:44;;;;;;;8.80;2.50;;;22.90;53.20;;;;;;220556;1267;24402;-61
2022/04/20 23:18:48;;;;;;;6.90;2.60;;;22.80;53.10;;;;;;220706;1267;26573;-62
2022/04/20 23:23:53;;;;;;;8.40;2.90;;;22.80;52.90;;;;;;220779;1267;24059;-61
2022/04/20 23:28:56;;;;;;;6.80;2.50;;;22.70;53.40;;;;;;220711;1268;22827;-61
2022/04/20 23:34:00;;;;;;;6.70;2.90;;;22.70;53.10;;;;;;220516;1268;25328;-61
2022/04/20 23:39:04;;;;;;;8.40;3.10;;;22.60;53.00;;;;;;220309;1267;24377;-62
2022/04/20 23:44:11;;;;;;;7.30;2.80;;;22.50;53.00;;;;;;220495;1268;25246;-60
2022/04/20 23:49:18;;;;;;;6.40;2.90;;;22.50;52.90;;;;;;220641;1268;22550;-62
2022/04/20 23:54:22;;;;;;;10.20;2.70;;;22.50;52.80;;;;;;220448;1268;22903;-61
2022/04/20 23:59:26;;;;;;;6.00;2.60;;;22.50;52.70;;;;;;220484;1267;24507;-62
